Time;durP1;ratioP1;P1;durP2;ratioP2;P2;SDS_P1;SDS_P2;PMS_P1;PMS_P2;Temp;Humidity;BMP_temperature;BMP_pressure;BME280_temperature;BME280_humidity;BME280_pressure;Samples;Min_cycle;Max_cycle;Signal;HPM_P1;HPM_P2
2021/12/18 00:01:05;;;;;;;14.02;4.07;;;7.40;99.90;;;;;;5073087;28;20594;-93
2021/12/18 00:03:32;;;;;;;14.02;4.30;;;7.40;99.90;;;;;;5090774;28;20632;-93
2021/12/18 00:05:57;;;;;;;13.20;4.68;;;7.40;99.90;;;;;;5088522;28;20127;-93
2021/12/18 00:08:23;;;;;;;15.43;4.93;;;7.40;99.90;;;;;;5090412;28;20869;-93
2021/12/18 00:10:49;;;;;;;20.30;4.10;;;7.40;99.90;;;;;;5073546;28;20122;-93
2021/12/18 00:13:16;;;;;;;26.00;5.25;;;7.30;99.90;;;;;;5073248;28;20079;-94
2021/12/18 00:15:41;;;;;;;52.88;5.30;;;7.30;99.90;;;;;;5089665;28;20122;-94
2021/12/18 00:18:07;;;;;;;50.65;5.35;;;7.30;99.90;;;;;;5090202;28;20067;-93
2021/12/18 00:20:35;;;;;;;35.17;5.05;;;7.20;99.90;;;;;;5073863;28;20051;-93
2021/12/18 00:23:01;;;;;;;41.65;5.57;;;7.30;99.90;;;;;;5090825;28;20047;-93
2021/12/18 00:25:27;;;;;;;55.30;5.85;;;7.30;99.90;;;;;;5073293;28;20050;-93
2021/12/18 00:27:53;;;;;;;29.00;5.13;;;7.20;99.90;;;;;;5073012;28;20070;-93
2021/12/18 00:30:19;;;;;;;52.28;5.88;;;7.20;99.90;;;;;;5074001;28;20485;-95
2021/12/18 00:32:44;;;;;;;46.40;5.47;;;7.10;99.90;;;;;;5073196;28;20096;-93
2021/12/18 00:35:10;;;;;;;30.35;4.80;;;7.20;99.90;;;;;;5073881;28;20043;-93
2021/12/18 00:37:37;;;;;;;29.63;4.60;;;7.30;99.90;;;;;;5073703;28;20701;-93
2021/12/18 00:40:08;;;;;;;29.20;4.30;;;7.30;99.90;;;;;;5073349;28;20110;-93
2021/12/18 00:42:46;;;;;;;24.88;3.88;;;7.20;99.90;;;;;;5093337;28;20039;-94
2021/12/18 00:45:14;;;;;;;22.65;4.10;;;7.10;99.90;;;;;;5075193;28;20052;-93
2021/12/18 00:47:41;;;;;;;29.55;4.63;;;7.00;99.90;;;;;;5075623;28;20040;-94
2021/12/18 00:50:12;;;;;;;26.83;4.15;;;6.90;99.90;;;;;;5076307;28;20047;-93
2021/12/18 00:52:38;;;;;;;14.32;4.32;;;6.90;99.90;;;;;;5091878;27;20134;-93
2021/12/18 00:55:05;;;;;;;13.88;3.97;;;7.00;99.90;;;;;;5099159;27;20090;-91
2021/12/18 00:57:30;;;;;;;27.38;4.05;;;7.00;99.90;;;;;;5080387;28;20051;-93
2021/12/18 01:00:00;;;;;;;20.35;4.13;;;7.00;99.90;;;;;;5075033;28;20462;-92
2021/12/18 01:02:28;;;;;;;20.92;3.53;;;6.90;99.90;;;;;;5069944;28;20071;-93
2021/12/18 01:04:54;;;;;;;26.15;3.47;;;6.90;99.90;;;;;;5078612;28;20040;-94
2021/12/18 01:07:19;;;;;;;19.40;4.10;;;7.00;99.90;;;;;;5094776;28;20084;-93
2021/12/18 01:12:11;;;;;;;11.60;3.28;;;6.90;99.90;;;;;;5094383;28;20047;-94
2021/12/18 01:15:01;;;;;;;16.98;3.65;;;6.80;99.90;;;;;;5078261;28;20118;-94
2021/12/18 01:22:47;;;;;;;;;;;6.90;99.90;;;;;;5095036;28;20101;-94
2021/12/18 01:25:14;;;;;;;14.68;3.55;;;6.80;99.90;;;;;;5078949;28;19919;-94
2021/12/18 01:27:39;;;;;;;16.10;4.00;;;6.90;99.90;;;;;;5091076;28;20100;-94
2021/12/18 01:30:08;;;;;;;26.95;3.85;;;6.80;99.90;;;;;;5074556;28;20127;-92
2021/12/18 01:32:34;;;;;;;20.80;4.38;;;6.80;99.90;;;;;;5074361;28;20136;-94
2021/12/18 01:35:01;;;;;;;11.85;3.20;;;6.80;99.90;;;;;;5074063;28;20105;-94
2021/12/18 01:37:27;;;;;;;20.17;3.97;;;6.90;99.90;;;;;;5091755;28;20418;-94
2021/12/18 01:39:53;;;;;;;17.10;4.05;;;6.90;99.90;;;;;;5074357;28;20040;-93
2021/12/18 01:53:11;;;;;;;10.07;3.00;;;6.90;99.90;;;;;;5033491;28;20084;-94
2021/12/18 01:55:39;;;;;;;10.05;3.15;;;7.00;99.90;;;;;;5016519;28;20040;-93
2021/12/18 01:58:05;;;;;;;12.27;2.90;;;6.90;99.90;;;;;;5016196;28;20045;-94
2021/12/18 02:00:42;;;;;;;12.02;2.50;;;6.90;99.90;;;;;;5013027;28;20046;-95
2021/12/18 02:03:09;;;;;;;14.55;2.90;;;6.90;99.90;;;;;;5032720;28;20037;-93
2021/12/18 02:05:37;;;;;;;8.45;2.70;;;6.80;99.90;;;;;;5033035;28;20499;-93
2021/12/18 02:08:04;;;;;;;14.43;2.83;;;6.90;99.90;;;;;;5049493;28;20041;-95
2021/12/18 02:10:32;;;;;;;12.68;3.22;;;6.80;99.90;;;;;;5028973;28;20599;-94
2021/12/18 02:13:06;;;;;;;9.65;2.67;;;6.80;99.90;;;;;;5030272;28;20140;-94
2021/12/18 02:19:35;;;;;;;15.50;3.03;;;6.80;99.90;;;;;;5016685;28;20076;-93
2021/12/18 02:21:18;;;;;;;27.73;3.33;;;6.70;99.90;;;;;;5032828;28;20084;-94
2021/12/18 02:23:44;;;;;;;29.65;2.75;;;6.70;99.90;;;;;;5041831;28;20206;-94
2021/12/18 02:26:11;;;;;;;37.83;3.20;;;6.60;99.90;;;;;;5073746;28;20051;-93
2021/12/18 02:28:37;;;;;;;50.97;3.90;;;6.60;99.90;;;;;;5077152;28;20076;-94
2021/12/18 02:31:03;;;;;;;34.28;3.58;;;6.50;99.90;;;;;;5076759;28;20126;-95
2021/12/18 02:33:29;;;;;;;29.30;3.20;;;6.50;99.90;;;;;;5076663;28;20062;-94
2021/12/18 02:35:58;;;;;;;27.35;3.05;;;6.50;99.90;;;;;;5076318;28;20047;-94
2021/12/18 02:38:45;;;;;;;20.38;2.83;;;6.50;99.90;;;;;;5076483;28;20070;-93
2021/12/18 02:42:07;;;;;;;20.92;2.88;;;6.50;99.90;;;;;;5076094;28;20042;-94
2021/12/18 02:44:02;;;;;;;15.80;2.78;;;6.40;99.90;;;;;;5078907;28;20176;-94
2021/12/18 02:46:28;;;;;;;9.40;2.75;;;6.40;99.90;;;;;;5076574;28;20401;-94
2021/12/18 02:48:55;;;;;;;21.30;3.30;;;6.40;99.90;;;;;;5076100;28;20041;-94
2021/12/18 02:51:21;;;;;;;12.07;2.83;;;6.30;99.90;;;;;;5076718;28;20122;-93
2021/12/18 02:53:50;;;;;;;21.88;3.40;;;6.30;99.90;;;;;;5076020;28;20040;-95
2021/12/18 02:56:22;;;;;;;15.50;2.63;;;6.30;99.90;;;;;;5076381;28;20399;-95
2021/12/18 02:58:50;;;;;;;14.80;2.92;;;6.30;99.90;;;;;;5076500;28;20058;-94
2021/12/18 03:01:20;;;;;;;7.85;2.70;;;6.30;99.90;;;;;;5076284;28;20043;-94
2021/12/18 03:03:47;;;;;;;13.00;2.95;;;6.30;99.90;;;;;;5075582;28;20075;-93
2021/12/18 03:06:37;;;;;;;15.20;3.15;;;6.20;99.90;;;;;;5076074;28;20035;-93
2021/12/18 03:25:10;;;;;;;9.85;3.03;;;6.20;99.90;;;;;;5092075;27;20047;-92
2021/12/18 03:27:36;;;;;;;12.38;3.13;;;6.20;99.90;;;;;;5078404;28;20051;-93
2021/12/18 03:30:02;;;;;;;11.90;2.85;;;6.30;99.90;;;;;;5077967;28;20066;-93
2021/12/18 03:32:28;;;;;;;9.13;2.83;;;6.30;99.90;;;;;;5077872;28;20043;-93
2021/12/18 03:34:54;;;;;;;11.40;2.97;;;6.20;99.90;;;;;;5075543;28;20038;-95
2021/12/18 03:37:20;;;;;;;6.97;2.65;;;6.20;99.90;;;;;;5074751;28;20044;-94
2021/12/18 03:39:47;;;;;;;12.75;3.00;;;6.30;99.90;;;;;;5078557;28;20052;-95
2021/12/18 03:42:13;;;;;;;10.50;3.08;;;6.30;99.90;;;;;;5078497;28;20071;-94
2021/12/18 03:44:39;;;;;;;11.27;2.90;;;6.40;99.90;;;;;;5075971;28;20093;-94
2021/12/18 03:47:06;;;;;;;9.20;2.45;;;6.30;99.90;;;;;;5075354;28;20047;-94
2021/12/18 03:49:32;;;;;;;7.70;2.38;;;6.40;99.90;;;;;;5076033;28;20093;-94
2021/12/18 03:51:58;;;;;;;10.07;2.42;;;6.40;99.90;;;;;;5071698;28;20032;-93
2021/12/18 03:54:23;;;;;;;8.68;2.40;;;6.40;99.90;;;;;;5056083;28;20052;-94
2021/12/18 03:56:49;;;;;;;21.27;3.15;;;6.40;99.90;;;;;;5055525;28;20124;-94
2021/12/18 03:59:15;;;;;;;18.08;3.35;;;6.30;99.90;;;;;;5064652;28;20054;-94
2021/12/18 04:01:41;;;;;;;23.33;3.47;;;6.30;99.90;;;;;;5075885;28;20035;-93
2021/12/18 04:04:06;;;;;;;22.88;3.42;;;6.30;99.90;;;;;;5075540;28;20481;-94
2021/12/18 04:06:32;;;;;;;17.02;3.40;;;6.30;99.90;;;;;;5075210;28;20134;-93
2021/12/18 04:08:58;;;;;;;14.80;3.60;;;6.30;99.90;;;;;;5075219;28;20055;-95
2021/12/18 04:11:24;;;;;;;19.13;3.13;;;6.30;99.90;;;;;;5075432;28;20050;-94
2021/12/18 04:13:49;;;;;;;14.07;2.60;;;6.30;99.90;;;;;;5075361;28;20429;-95
2021/12/18 04:16:16;;;;;;;9.32;2.88;;;6.30;99.90;;;;;;5075595;28;20447;-95
2021/12/18 04:18:42;;;;;;;13.63;2.92;;;6.20;99.90;;;;;;5075211;28;20043;-94
2021/12/18 04:21:08;;;;;;;10.93;2.75;;;6.20;99.90;;;;;;5075196;28;20080;-95
2021/12/18 04:23:33;;;;;;;10.32;2.78;;;6.20;99.90;;;;;;5075256;28;20128;-93
2021/12/18 04:25:59;;;;;;;7.47;2.40;;;6.10;99.90;;;;;;5077517;28;20109;-94
2021/12/18 04:28:26;;;;;;;9.70;2.50;;;6.10;99.90;;;;;;5065949;28;20055;-93
2021/12/18 04:30:52;;;;;;;11.18;2.63;;;6.10;99.90;;;;;;5074450;28;20046;-94
2021/12/18 04:33:17;;;;;;;12.68;2.72;;;6.10;99.90;;;;;;5078797;28;20126;-93
2021/12/18 04:35:43;;;;;;;12.23;3.20;;;6.10;99.90;;;;;;5078951;28;20442;-95
2021/12/18 04:38:09;;;;;;;17.52;3.42;;;6.10;99.90;;;;;;5079455;28;20040;-95
2021/12/18 04:40:36;;;;;;;16.20;3.28;;;6.10;99.90;;;;;;5078848;28;20126;-94
2021/12/18 04:43:03;;;;;;;16.45;2.97;;;6.10;99.90;;;;;;5078046;28;20124;-94
2021/12/18 04:45:29;;;;;;;7.68;2.25;;;6.10;99.90;;;;;;5078869;28;20039;-94
2021/12/18 04:47:55;;;;;;;14.30;2.80;;;6.20;99.90;;;;;;5072117;28;20058;-92
2021/12/18 04:50:21;;;;;;;10.57;2.80;;;6.20;99.90;;;;;;5069773;28;20105;-95
2021/12/18 04:52:47;;;;;;;8.77;2.50;;;6.20;99.90;;;;;;5079796;28;20138;-95
2021/12/18 04:55:13;;;;;;;8.23;2.47;;;6.10;99.90;;;;;;5079590;28;20082;-95
2021/12/18 04:57:38;;;;;;;6.35;2.17;;;6.10;99.90;;;;;;5079297;28;20043;-95
2021/12/18 05:00:06;;;;;;;7.07;2.03;;;6.10;99.90;;;;;;5079088;28;20040;-94
2021/12/18 05:02:37;;;;;;;11.63;2.17;;;6.00;99.90;;;;;;5078533;28;20035;-94
2021/12/18 05:05:04;;;;;;;7.28;1.83;;;6.00;99.90;;;;;;5078216;28;20043;-95
2021/12/18 05:07:30;;;;;;;7.45;1.90;;;6.00;99.90;;;;;;5095911;27;20061;-94
2021/12/18 05:09:55;;;;;;;9.57;2.28;;;6.00;99.90;;;;;;5098973;27;20043;-93
2021/12/18 05:12:21;;;;;;;11.85;2.28;;;6.00;99.90;;;;;;5098885;27;20043;-94
2021/12/18 05:14:46;;;;;;;11.82;2.40;;;6.00;99.90;;;;;;5082869;28;20531;-95
2021/12/18 05:17:12;;;;;;;11.63;2.75;;;6.00;99.90;;;;;;5078613;28;20036;-96
2021/12/18 05:19:38;;;;;;;10.05;2.17;;;6.00;99.90;;;;;;5078372;28;20043;-95
2021/12/18 05:22:04;;;;;;;10.43;2.42;;;6.10;99.90;;;;;;5078578;28;20126;-94
2021/12/18 05:24:30;;;;;;;8.07;2.33;;;6.10;99.90;;;;;;5078753;28;20431;-95
2021/12/18 05:26:56;;;;;;;11.15;2.47;;;6.10;99.90;;;;;;5074649;28;20056;-94
2021/12/18 05:29:22;;;;;;;7.18;2.20;;;6.20;99.90;;;;;;5074731;28;20489;-94
2021/12/18 05:31:48;;;;;;;8.80;2.13;;;6.20;99.90;;;;;;5074548;28;20040;-95
2021/12/18 05:34:20;;;;;;;12.68;2.55;;;6.30;99.90;;;;;;5074701;28;20046;-95
2021/12/18 05:39:36;;;;;;;9.27;2.47;;;6.30;99.90;;;;;;5070937;28;20044;-95
2021/12/18 05:42:02;;;;;;;13.20;2.88;;;6.30;99.90;;;;;;5037208;28;20053;-94
2021/12/18 05:44:27;;;;;;;13.90;2.53;;;6.30;99.90;;;;;;5037102;28;20056;-94
2021/12/18 05:46:54;;;;;;;13.70;3.05;;;6.30;99.90;;;;;;5036350;28;20055;-96
2021/12/18 05:49:20;;;;;;;13.27;3.20;;;6.30;99.90;;;;;;5036940;28;20093;-93
2021/12/18 05:51:46;;;;;;;15.25;3.00;;;6.30;99.90;;;;;;5033376;28;20060;-95
2021/12/18 05:54:13;;;;;;;10.20;3.30;;;6.30;99.90;;;;;;5036862;28;20206;-95
2021/12/18 05:56:40;;;;;;;8.95;3.50;;;6.40;99.90;;;;;;5036594;28;20048;-94
2021/12/18 05:59:05;;;;;;;12.02;3.17;;;6.40;99.90;;;;;;5036180;28;20123;-95
2021/12/18 06:01:31;;;;;;;14.48;3.83;;;6.40;99.90;;;;;;5036302;28;20588;-95
2021/12/18 06:03:57;;;;;;;12.88;3.45;;;6.40;99.90;;;;;;5036713;28;20060;-95
2021/12/18 06:06:23;;;;;;;11.20;3.47;;;6.40;99.90;;;;;;5036487;28;20041;-95
2021/12/18 06:08:50;;;;;;;10.68;3.25;;;6.40;99.90;;;;;;5036706;28;20048;-96
2021/12/18 06:11:17;;;;;;;11.73;2.92;;;6.40;99.90;;;;;;5036290;28;20064;-94
2021/12/18 06:13:50;;;;;;;15.18;3.72;;;6.40;99.90;;;;;;5035905;28;20048;-95
2021/12/18 06:16:17;;;;;;;15.97;3.77;;;6.40;99.90;;;;;;5047863;28;20055;-94
2021/12/18 06:18:44;;;;;;;19.95;3.75;;;6.40;99.90;;;;;;5073792;28;20576;-95
2021/12/18 06:21:15;;;;;;;18.50;3.45;;;6.40;99.90;;;;;;5073986;28;20093;-96
2021/12/18 06:23:42;;;;;;;16.48;4.05;;;6.40;99.90;;;;;;5074310;28;20040;-94
2021/12/18 06:26:07;;;;;;;12.48;3.67;;;6.40;99.90;;;;;;5074029;28;20044;-95
2021/12/18 06:28:33;;;;;;;15.88;4.15;;;6.40;99.90;;;;;;5073670;28;20056;-95
2021/12/18 06:31:01;;;;;;;15.27;3.35;;;6.50;99.90;;;;;;5073326;28;20044;-95
2021/12/18 06:33:26;;;;;;;13.77;3.70;;;6.40;99.90;;;;;;5073485;28;20082;-94
2021/12/18 06:35:52;;;;;;;14.15;4.03;;;6.50;99.90;;;;;;5074410;28;20490;-95
2021/12/18 06:38:18;;;;;;;18.35;3.83;;;6.40;99.90;;;;;;5073653;28;20040;-95
2021/12/18 06:40:43;;;;;;;14.73;3.70;;;6.40;99.90;;;;;;5074144;28;20115;-96
2021/12/18 06:43:09;;;;;;;18.52;3.97;;;6.50;99.90;;;;;;5076558;28;20057;-96
2021/12/18 06:45:34;;;;;;;17.45;4.28;;;6.50;99.90;;;;;;5083819;28;20044;-96
2021/12/18 06:48:00;;;;;;;10.98;4.10;;;6.50;99.90;;;;;;5083884;28;20044;-96
2021/12/18 06:50:26;;;;;;;14.23;3.83;;;6.50;99.90;;;;;;5084247;28;20047;-96
2021/12/18 06:52:52;;;;;;;17.15;4.07;;;6.50;99.90;;;;;;5079318;28;20521;-96
2021/12/18 06:55:18;;;;;;;16.73;3.78;;;6.50;99.90;;;;;;5083211;28;20044;-96
2021/12/18 06:57:43;;;;;;;16.25;4.18;;;6.50;99.90;;;;;;5084397;28;20050;-96
2021/12/18 07:00:11;;;;;;;23.35;4.65;;;6.50;99.90;;;;;;5086255;28;20043;-96
2021/12/18 07:02:37;;;;;;;18.48;4.40;;;6.50;99.90;;;;;;5082838;28;20113;-96
2021/12/18 07:05:03;;;;;;;18.73;4.82;;;6.50;99.90;;;;;;5076278;28;20252;-96
2021/12/18 07:07:29;;;;;;;15.77;5.15;;;6.50;99.90;;;;;;5080753;28;20550;-96
2021/12/18 07:09:55;;;;;;;23.88;5.35;;;6.50;99.90;;;;;;5077913;28;20043;-96
2021/12/18 07:12:20;;;;;;;22.92;4.80;;;6.50;99.90;;;;;;5077740;28;20040;-96
2021/12/18 07:14:46;;;;;;;24.30;5.13;;;6.50;99.90;;;;;;5080309;28;20744;-96
2021/12/18 07:17:12;;;;;;;27.90;5.57;;;6.50;99.90;;;;;;5080881;28;20028;-96
2021/12/18 07:19:38;;;;;;;20.13;4.70;;;6.50;99.90;;;;;;5081554;28;20032;-96
2021/12/18 07:22:04;;;;;;;21.83;5.55;;;6.50;99.90;;;;;;5081654;28;20493;-96
2021/12/18 07:24:30;;;;;;;23.77;6.07;;;6.50;99.90;;;;;;5080785;28;20491;-96
2021/12/18 07:26:56;;;;;;;21.25;5.25;;;6.50;99.90;;;;;;5078910;28;20065;-96
2021/12/18 07:29:22;;;;;;;21.13;5.30;;;6.60;99.90;;;;;;5071903;28;20119;-96
2021/12/18 07:31:49;;;;;;;21.33;5.43;;;6.60;99.90;;;;;;5078089;28;20129;-96
2021/12/18 07:34:15;;;;;;;24.85;5.45;;;6.60;99.90;;;;;;5076905;28;20067;-96
2021/12/18 07:36:41;;;;;;;24.50;5.22;;;6.60;99.90;;;;;;5076008;28;20085;-95
2021/12/18 07:39:06;;;;;;;25.98;5.55;;;6.60;99.90;;;;;;5074523;28;20140;-96
2021/12/18 07:41:32;;;;;;;26.40;5.43;;;6.60;99.90;;;;;;5076467;28;20122;-95
2021/12/18 07:43:58;;;;;;;25.48;5.22;;;6.60;99.90;;;;;;5073582;28;20097;-95
2021/12/18 07:46:24;;;;;;;24.55;5.32;;;6.70;99.90;;;;;;5068727;28;20041;-95
2021/12/18 07:48:49;;;;;;;23.02;5.32;;;6.70;99.90;;;;;;5077603;28;20050;-95
2021/12/18 07:51:15;;;;;;;26.27;5.57;;;6.70;99.90;;;;;;5075137;28;20040;-94
2021/12/18 07:53:41;;;;;;;22.27;5.15;;;6.70;99.90;;;;;;5071522;28;20047;-95
2021/12/18 07:56:09;;;;;;;26.80;4.97;;;6.70;99.90;;;;;;5068403;28;20417;-94
2021/12/18 07:58:35;;;;;;;20.02;5.18;;;6.70;99.90;;;;;;5056577;28;20040;-95
2021/12/18 08:01:01;;;;;;;20.63;5.45;;;6.70;99.90;;;;;;5074858;28;20040;-94
2021/12/18 08:03:26;;;;;;;20.48;5.07;;;6.70;99.90;;;;;;5068220;28;20047;-94
2021/12/18 08:05:52;;;;;;;20.15;5.13;;;6.80;99.90;;;;;;5072886;28;20173;-94
2021/12/18 08:08:17;;;;;;;22.27;5.40;;;6.80;99.90;;;;;;5066068;28;20052;-95
2021/12/18 08:10:43;;;;;;;19.10;5.47;;;6.80;99.90;;;;;;5078870;28;20120;-94
2021/12/18 08:13:09;;;;;;;17.83;4.88;;;6.80;99.90;;;;;;5068423;28;20448;-95
2021/12/18 08:15:34;;;;;;;20.92;5.40;;;6.80;99.90;;;;;;5062831;28;20076;-94
2021/12/18 08:18:04;;;;;;;19.60;5.28;;;6.80;99.90;;;;;;5092184;28;20846;-94
2021/12/18 08:20:29;;;;;;;18.50;5.40;;;6.90;99.90;;;;;;5070237;28;20032;-94
2021/12/18 08:22:55;;;;;;;27.10;5.57;;;6.80;99.90;;;;;;5069557;28;20048;-95
2021/12/18 08:25:21;;;;;;;23.42;5.15;;;6.80;99.90;;;;;;5073027;28;20383;-94
2021/12/18 08:27:46;;;;;;;16.92;5.15;;;6.90;99.90;;;;;;5065364;28;20052;-94
2021/12/18 08:30:12;;;;;;;29.40;5.97;;;6.90;99.90;;;;;;5059555;28;20048;-94
2021/12/18 08:32:40;;;;;;;27.83;5.85;;;6.90;99.90;;;;;;5075652;28;20065;-93
2021/12/18 08:35:07;;;;;;;26.17;5.25;;;6.90;99.90;;;;;;5066950;28;20047;-93
2021/12/18 08:37:32;;;;;;;24.98;5.95;;;6.90;99.90;;;;;;5059780;28;20051;-94
2021/12/18 08:39:58;;;;;;;27.17;6.45;;;6.90;99.90;;;;;;5071236;28;20041;-94
2021/12/18 08:42:24;;;;;;;23.38;5.95;;;7.00;99.90;;;;;;5066576;28;20048;-94
2021/12/18 08:44:50;;;;;;;24.88;6.40;;;7.00;99.90;;;;;;5081658;28;20036;-94
2021/12/18 08:47:16;;;;;;;21.65;6.13;;;7.00;99.90;;;;;;5075821;28;20074;-93
2021/12/18 08:49:42;;;;;;;25.83;6.63;;;7.00;99.90;;;;;;5074329;28;20075;-95
2021/12/18 08:52:07;;;;;;;25.63;6.65;;;7.00;99.90;;;;;;5076750;28;20067;-95
2021/12/18 08:54:33;;;;;;;23.90;6.90;;;7.00;99.90;;;;;;5074933;28;20051;-92
2021/12/18 08:56:59;;;;;;;31.92;7.25;;;7.10;99.90;;;;;;5074977;28;20477;-91
2021/12/18 08:59:24;;;;;;;27.40;6.40;;;7.10;99.90;;;;;;5075237;28;20507;-90
2021/12/18 09:01:50;;;;;;;29.15;6.65;;;7.10;99.90;;;;;;5074774;28;20047;-92
2021/12/18 09:04:15;;;;;;;24.52;7.43;;;7.10;99.90;;;;;;5075047;28;20043;-91
2021/12/18 09:06:41;;;;;;;24.55;6.53;;;7.10;99.90;;;;;;5074847;28;20055;-92
2021/12/18 09:09:07;;;;;;;34.33;7.20;;;7.20;99.90;;;;;;5074775;28;20032;-91
2021/12/18 09:11:33;;;;;;;31.08;7.35;;;7.20;99.90;;;;;;5073782;28;20039;-92
2021/12/18 09:13:59;;;;;;;30.67;7.45;;;7.20;99.90;;;;;;5074781;28;20040;-90
2021/12/18 09:16:26;;;;;;;25.55;7.57;;;7.20;99.90;;;;;;5073999;28;20040;-91
2021/12/18 09:18:52;;;;;;;31.75;7.88;;;7.20;99.90;;;;;;5073630;28;20040;-91
2021/12/18 09:21:17;;;;;;;26.85;7.70;;;7.20;99.90;;;;;;5074622;28;20051;-91
2021/12/18 09:23:43;;;;;;;37.08;8.20;;;7.20;99.90;;;;;;5074039;28;20126;-92
2021/12/18 09:26:08;;;;;;;33.30;8.95;;;7.30;99.90;;;;;;5073968;28;20044;-91
2021/12/18 09:28:34;;;;;;;28.15;7.05;;;7.30;99.90;;;;;;5071570;28;20563;-91
2021/12/18 09:30:59;;;;;;;28.95;8.50;;;7.40;99.90;;;;;;5069876;28;20524;-91
2021/12/18 09:33:25;;;;;;;29.95;8.20;;;7.40;99.90;;;;;;5073064;28;20488;-92
2021/12/18 09:35:51;;;;;;;28.13;7.63;;;7.50;99.90;;;;;;5068990;28;20048;-91
2021/12/18 09:38:18;;;;;;;25.58;7.75;;;7.50;99.90;;;;;;5068061;28;20119;-91
2021/12/18 09:40:44;;;;;;;26.52;7.50;;;7.50;99.90;;;;;;5075957;28;20074;-92
2021/12/18 09:43:09;;;;;;;26.42;7.50;;;7.50;99.90;;;;;;5073611;28;20398;-91
2021/12/18 09:45:35;;;;;;;24.70;7.18;;;7.60;99.90;;;;;;5073972;28;20044;-91
2021/12/18 09:48:01;;;;;;;28.83;7.55;;;7.70;99.90;;;;;;5073531;28;20413;-92
2021/12/18 09:50:28;;;;;;;22.27;7.85;;;7.70;99.90;;;;;;5073670;28;20113;-92
2021/12/18 09:52:54;;;;;;;33.63;8.50;;;7.70;99.90;;;;;;5073823;28;20048;-91
2021/12/18 09:55:20;;;;;;;33.13;9.77;;;7.80;99.90;;;;;;5073326;28;20386;-90
2021/12/18 09:57:47;;;;;;;30.52;9.88;;;7.70;99.90;;;;;;5074288;28;20043;-91
2021/12/18 10:00:17;;;;;;;26.90;9.27;;;7.80;99.90;;;;;;5073697;28;20044;-90
2021/12/18 10:02:43;;;;;;;24.67;8.75;;;7.80;99.90;;;;;;5053784;28;20612;-92
2021/12/18 10:05:26;;;;;;;32.70;8.68;;;7.80;99.90;;;;;;5064050;28;20036;-90
2021/12/18 10:08:07;;;;;;;25.85;9.15;;;7.90;99.90;;;;;;5073193;28;20051;-91
2021/12/18 10:10:33;;;;;;;27.25;8.88;;;7.90;99.90;;;;;;5073663;28;20040;-90
2021/12/18 10:13:08;;;;;;;28.23;9.55;;;7.90;99.90;;;;;;5073587;28;20040;-90
2021/12/18 10:15:34;;;;;;;33.22;9.25;;;7.90;99.90;;;;;;5072880;28;20048;-90
2021/12/18 10:18:05;;;;;;;32.40;10.60;;;8.00;99.90;;;;;;5073014;28;20044;-91
2021/12/18 10:20:31;;;;;;;22.98;9.65;;;8.00;99.90;;;;;;5089748;28;20040;-91
2021/12/18 10:23:04;;;;;;;42.20;12.40;;;8.00;99.90;;;;;;5073012;28;20397;-89
2021/12/18 10:25:42;;;;;;;58.88;19.00;;;8.00;99.90;;;;;;5073095;28;20051;-90
2021/12/18 10:28:20;;;;;;;46.70;16.70;;;8.00;99.90;;;;;;5073402;28;20056;-90
2021/12/18 10:30:56;;;;;;;32.08;14.00;;;8.10;99.90;;;;;;5089887;28;20048;-91
2021/12/18 10:33:29;;;;;;;35.13;11.13;;;8.10;99.90;;;;;;5073779;28;20401;-90
2021/12/18 10:35:58;;;;;;;34.03;9.75;;;8.10;99.90;;;;;;5072930;28;20446;-89
2021/12/18 10:38:50;;;;;;;32.53;9.13;;;8.20;99.90;;;;;;5073176;28;20040;-89
2021/12/18 10:41:29;;;;;;;26.33;8.30;;;8.20;99.90;;;;;;5072741;28;20048;-90
2021/12/18 10:44:06;;;;;;;28.63;11.65;;;8.20;99.90;;;;;;5073159;28;20047;-89
2021/12/18 10:46:34;;;;;;;36.80;11.93;;;8.20;99.90;;;;;;5072704;28;20051;-91
2021/12/18 10:49:14;;;;;;;35.33;11.68;;;8.20;99.90;;;;;;5072734;28;20040;-94
2021/12/18 10:51:41;;;;;;;35.20;9.82;;;8.20;99.90;;;;;;5072430;28;20505;-94
2021/12/18 10:54:16;;;;;;;20.00;7.45;;;8.30;99.90;;;;;;5072351;28;20375;-93
2021/12/18 10:56:51;;;;;;;27.63;8.15;;;8.20;99.90;;;;;;5072648;28;20076;-92
2021/12/18 10:59:27;;;;;;;25.88;8.27;;;8.20;99.90;;;;;;5072455;28;20089;-92
2021/12/18 11:01:56;;;;;;;31.40;6.65;;;8.30;99.90;;;;;;5072399;28;20050;-93
2021/12/18 11:04:24;;;;;;;19.92;6.80;;;8.30;99.90;;;;;;5072556;28;20498;-93
2021/12/18 11:06:50;;;;;;;16.20;6.25;;;8.40;99.90;;;;;;5071394;28;20048;-93
2021/12/18 11:09:17;;;;;;;17.75;6.43;;;8.30;99.90;;;;;;5072832;28;20039;-92
2021/12/18 11:14:39;;;;;;;31.08;7.15;;;8.40;99.90;;;;;;5089499;28;20146;-92
2021/12/18 11:17:10;;;;;;;19.48;6.22;;;8.40;99.90;;;;;;5071923;28;20082;-93
2021/12/18 11:19:37;;;;;;;19.35;6.22;;;8.40;99.90;;;;;;5075253;28;20039;-93
2021/12/18 11:22:05;;;;;;;23.13;6.53;;;8.40;99.90;;;;;;5075464;28;20040;-93
2021/12/18 11:24:36;;;;;;;21.20;6.55;;;8.50;99.90;;;;;;5075230;28;20097;-94
2021/12/18 11:27:08;;;;;;;19.75;6.85;;;8.50;99.90;;;;;;5073296;28;20059;-93
2021/12/18 11:29:40;;;;;;;21.35;7.05;;;8.50;99.90;;;;;;5076409;28;20044;-96
2021/12/18 11:32:08;;;;;;;18.58;6.85;;;8.50;99.90;;;;;;5071689;28;20097;-92
2021/12/18 11:34:34;;;;;;;13.65;6.07;;;8.50;99.90;;;;;;5073574;28;20477;-94
2021/12/18 11:37:00;;;;;;;19.00;6.03;;;8.50;99.90;;;;;;5075348;28;20050;-94
2021/12/18 11:39:30;;;;;;;10.70;4.93;;;8.40;99.90;;;;;;5075083;28;20036;-94
2021/12/18 11:41:55;;;;;;;15.63;5.30;;;8.40;99.90;;;;;;5073429;28;20051;-94
2021/12/18 11:44:33;;;;;;;15.05;5.90;;;8.40;99.90;;;;;;5071984;28;20040;-93
2021/12/18 11:47:20;;;;;;;13.27;5.30;;;8.40;99.90;;;;;;5075112;28;20067;-94
2021/12/18 11:49:46;;;;;;;15.43;5.57;;;8.40;99.90;;;;;;5075014;28;20044;-93
2021/12/18 11:52:11;;;;;;;12.75;5.13;;;8.40;99.90;;;;;;5073704;28;20047;-94
2021/12/18 11:54:52;;;;;;;13.73;5.32;;;8.50;99.90;;;;;;5071027;28;20025;-93
2021/12/18 11:57:41;;;;;;;16.98;6.10;;;8.50;99.90;;;;;;5073610;28;20036;-92
2021/12/18 12:00:21;;;;;;;14.68;5.82;;;8.40;99.90;;;;;;5072088;28;20039;-93
2021/12/18 12:02:49;;;;;;;15.88;6.32;;;8.40;99.90;;;;;;5076414;28;20043;-93
2021/12/18 12:05:17;;;;;;;19.08;7.28;;;8.40;99.90;;;;;;5073031;28;20284;-93
2021/12/18 12:07:44;;;;;;;17.80;6.78;;;8.40;99.90;;;;;;5073377;28;20040;-94
2021/12/18 12:10:46;;;;;;;20.95;7.35;;;8.40;99.90;;;;;;5073723;28;20081;-92
2021/12/18 12:13:06;;;;;;;20.23;7.30;;;8.40;99.90;;;;;;5088092;28;20143;-94
2021/12/18 12:15:31;;;;;;;14.18;6.15;;;8.40;99.90;;;;;;5071143;28;20123;-94
2021/12/18 12:17:59;;;;;;;15.00;5.47;;;8.40;99.90;;;;;;5071569;28;20160;-95
2021/12/18 12:20:48;;;;;;;11.45;5.03;;;8.40;99.90;;;;;;5071155;28;20040;-91
2021/12/18 12:23:14;;;;;;;14.13;6.05;;;8.40;99.90;;;;;;5070557;28;20111;-91
2021/12/18 12:25:50;;;;;;;16.73;5.60;;;8.40;99.90;;;;;;5071618;28;20032;-92
2021/12/18 12:28:17;;;;;;;12.68;5.82;;;8.40;99.90;;;;;;5071447;28;20421;-91
2021/12/18 12:31:02;;;;;;;15.55;5.90;;;8.40;99.90;;;;;;5071706;28;20539;-91
2021/12/18 12:33:35;;;;;;;14.55;6.45;;;8.40;99.90;;;;;;5071830;28;20437;-92
2021/12/18 12:36:05;;;;;;;18.67;6.95;;;8.50;99.90;;;;;;5071583;28;20046;-89
2021/12/18 12:38:33;;;;;;;19.30;6.07;;;8.40;99.90;;;;;;5072095;28;20044;-91
2021/12/18 12:41:29;;;;;;;373.45;31.30;;;8.40;99.90;;;;;;5071118;28;20086;-92
2021/12/18 12:44:01;;;;;;;23.35;6.85;;;8.40;99.90;;;;;;5070661;28;20044;-92
2021/12/18 12:46:27;;;;;;;23.63;7.07;;;8.50;99.90;;;;;;5072902;28;20082;-92
2021/12/18 12:49:09;;;;;;;16.30;6.40;;;8.50;99.90;;;;;;5091300;28;20067;-93
2021/12/18 12:51:56;;;;;;;17.35;6.13;;;8.50;99.90;;;;;;5092216;28;20055;-92
2021/12/18 12:54:57;;;;;;;13.25;5.68;;;8.50;99.90;;;;;;5075508;28;20052;-92
2021/12/18 12:57:23;;;;;;;14.88;5.97;;;8.50;99.90;;;;;;5109383;28;20055;-92
2021/12/18 13:00:05;;;;;;;18.70;5.95;;;8.50;99.90;;;;;;5074622;28;20040;-92
2021/12/18 13:02:34;;;;;;;17.08;5.40;;;8.50;99.90;;;;;;5091457;28;20052;-92
2021/12/18 13:05:04;;;;;;;14.82;5.60;;;8.50;99.90;;;;;;5074378;28;20058;-92
2021/12/18 13:07:29;;;;;;;15.55;5.63;;;8.50;99.90;;;;;;5083677;28;20055;-92
2021/12/18 13:09:55;;;;;;;14.48;6.25;;;8.60;99.90;;;;;;5073971;28;20489;-93
2021/12/18 13:12:21;;;;;;;18.48;6.75;;;8.50;99.90;;;;;;5074532;28;20040;-92
2021/12/18 13:14:46;;;;;;;14.07;6.55;;;8.50;99.90;;;;;;5091584;28;20120;-92
2021/12/18 13:17:19;;;;;;;15.90;6.03;;;8.60;99.90;;;;;;5074519;28;20120;-91
2021/12/18 13:19:54;;;;;;;22.13;6.18;;;8.50;99.90;;;;;;5074523;28;20567;-92
2021/12/18 13:22:27;;;;;;;14.93;5.60;;;8.60;99.90;;;;;;5074708;28;20043;-92
2021/12/18 13:25:03;;;;;;;28.38;5.80;;;8.60;99.90;;;;;;5074580;28;20040;-92
2021/12/18 13:27:28;;;;;;;14.90;6.32;;;8.60;99.90;;;;;;5074141;28;20043;-89
2021/12/18 13:30:16;;;;;;;20.85;6.25;;;8.60;99.90;;;;;;5074007;28;20036;-90
2021/12/18 13:32:53;;;;;;;18.10;6.47;;;8.60;99.90;;;;;;5073811;28;20041;-90
2021/12/18 13:35:19;;;;;;;15.98;6.65;;;8.50;99.90;;;;;;5074524;28;20081;-90
2021/12/18 13:38:05;;;;;;;11.85;5.03;;;8.50;99.90;;;;;;5074301;28;20043;-91